createdAt,value
2022-10-10T00:01:24.880Z,100.00
2022-10-10T00:03:51.586Z,100.00
2022-10-10T00:06:18.297Z,100.00
2022-10-10T00:08:44.914Z,100.00
2022-10-10T00:11:12.320Z,100.00
2022-10-10T00:13:39.159Z,100.00
2022-10-10T00:16:05.719Z,100.00
2022-10-10T00:18:32.257Z,100.00
2022-10-10T00:20:59.020Z,100.00
2022-10-10T00:23:25.256Z,100.00
2022-10-10T00:25:51.641Z,100.00
2022-10-10T00:28:18.285Z,100.00
2022-10-10T00:30:44.941Z,100.00
2022-10-10T00:33:11.215Z,100.00
2022-10-10T00:35:37.691Z,100.00
2022-10-10T00:38:04.114Z,100.00
2022-10-10T00:40:30.517Z,100.00
2022-10-10T00:42:57.133Z,100.00
2022-10-10T00:45:35.711Z,100.00
2022-10-10T00:48:08.015Z,100.00
2022-10-10T00:50:43.655Z,100.00
2022-10-10T00:53:12.451Z,100.00
2022-10-10T00:55:39.010Z,100.00
2022-10-10T00:58:07.521Z,100.00
2022-10-10T01:00:34.125Z,100.00
2022-10-10T01:03:00.535Z,100.00
2022-10-10T01:05:27.078Z,100.00
2022-10-10T01:07:54.000Z,100.00
2022-10-10T01:10:22.333Z,100.00
2022-10-10T01:13:13.008Z,100.00
2022-10-10T01:15:39.314Z,100.00
2022-10-10T01:18:28.094Z,100.00
2022-10-10T01:21:09.548Z,100.00
2022-10-10T01:24:16.607Z,100.00
2022-10-10T01:27:17.626Z,100.00
2022-10-10T01:29:52.888Z,100.00
2022-10-10T01:32:27.274Z,100.00
2022-10-10T01:35:12.010Z,100.00
2022-10-10T01:37:41.302Z,100.00
2022-10-10T01:40:17.358Z,100.00
2022-10-10T01:42:54.550Z,100.00
2022-10-10T01:45:21.526Z,100.00
2022-10-10T01:47:49.203Z,100.00
2022-10-10T01:50:20.480Z,100.00
2022-10-10T01:53:28.945Z,100.00
2022-10-10T01:56:09.154Z,100.00
2022-10-10T01:58:48.178Z,100.00
2022-10-10T02:01:40.676Z,100.00
2022-10-10T02:04:37.776Z,100.00
2022-10-10T02:07:22.133Z,100.00
2022-10-10T02:09:50.389Z,100.00
2022-10-10T02:12:18.647Z,100.00
2022-10-10T02:14:52.460Z,100.00
2022-10-10T02:17:20.027Z,100.00
2022-10-10T02:19:53.532Z,100.00
2022-10-10T02:22:21.675Z,100.00
2022-10-10T02:24:48.612Z,100.00
2022-10-10T02:27:28.119Z,100.00
2022-10-10T02:29:57.428Z,100.00
2022-10-10T02:32:35.032Z,100.00
2022-10-10T02:35:08.606Z,100.00
2022-10-10T02:37:36.364Z,100.00
2022-10-10T02:40:05.865Z,100.00
2022-10-10T02:42:33.566Z,100.00
2022-10-10T02:45:00.164Z,100.00
2022-10-10T02:47:26.864Z,100.00
2022-10-10T02:49:53.157Z,100.00
2022-10-10T02:52:19.493Z,100.00
2022-10-10T02:54:46.217Z,100.00
2022-10-10T02:57:12.828Z,100.00
2022-10-10T02:59:39.533Z,100.00
2022-10-10T03:02:05.986Z,100.00
2022-10-10T03:04:32.574Z,100.00
2022-10-10T03:06:58.853Z,100.00
2022-10-10T03:09:25.680Z,100.00
2022-10-10T03:11:51.923Z,100.00
2022-10-10T03:14:18.535Z,100.00
2022-10-10T03:16:44.821Z,100.00
2022-10-10T03:19:11.256Z,100.00
2022-10-10T03:21:37.815Z,100.00
2022-10-10T03:24:05.060Z,100.00
2022-10-10T03:26:32.333Z,100.00
2022-10-10T03:28:58.665Z,100.00
2022-10-10T03:31:25.210Z,100.00
2022-10-10T03:33:51.370Z,100.00
2022-10-10T03:36:17.684Z,100.00
2022-10-10T03:38:43.786Z,100.00
2022-10-10T03:41:10.187Z,100.00
2022-10-10T03:43:36.385Z,100.00
2022-10-10T03:46:02.551Z,100.00
2022-10-10T03:48:28.963Z,100.00
2022-10-10T03:50:55.149Z,100.00
2022-10-10T03:53:21.863Z,100.00
2022-10-10T03:55:48.104Z,100.00
2022-10-10T03:58:14.478Z,100.00
2022-10-10T04:00:40.583Z,100.00
2022-10-10T04:03:07.472Z,100.00
2022-10-10T04:05:35.764Z,100.00
2022-10-10T04:08:05.110Z,100.00
2022-10-10T04:10:31.741Z,100.00
2022-10-10T04:12:58.172Z,100.00
2022-10-10T04:15:24.891Z,100.00
2022-10-10T04:17:52.275Z,100.00
2022-10-10T04:20:19.125Z,100.00
2022-10-10T04:22:45.526Z,100.00
2022-10-10T04:25:11.986Z,100.00
2022-10-10T04:27:38.547Z,100.00
2022-10-10T04:30:06.127Z,100.00
2022-10-10T04:32:32.605Z,100.00
2022-10-10T04:34:58.735Z,100.00
2022-10-10T04:37:25.281Z,100.00
2022-10-10T04:39:51.709Z,100.00
2022-10-10T04:42:18.053Z,100.00
2022-10-10T04:44:44.244Z,100.00
2022-10-10T04:47:11.553Z,100.00
2022-10-10T04:49:38.022Z,100.00
2022-10-10T04:52:04.341Z,100.00
2022-10-10T04:54:30.565Z,100.00
2022-10-10T04:56:58.155Z,100.00
2022-10-10T04:59:24.345Z,100.00
2022-10-10T05:01:50.792Z,100.00
2022-10-10T05:04:17.254Z,100.00
2022-10-10T05:06:43.735Z,100.00
2022-10-10T05:09:09.935Z,100.00
2022-10-10T05:11:36.562Z,100.00
2022-10-10T05:14:03.476Z,100.00
2022-10-10T05:16:30.131Z,100.00
2022-10-10T05:19:00.919Z,100.00
2022-10-10T05:21:27.903Z,100.00
2022-10-10T05:23:54.363Z,100.00
2022-10-10T05:26:20.766Z,100.00
2022-10-10T05:28:47.121Z,100.00
2022-10-10T05:31:13.596Z,100.00
2022-10-10T05:33:40.115Z,100.00
2022-10-10T05:36:12.827Z,100.00
2022-10-10T05:38:40.670Z,100.00
2022-10-10T05:41:08.960Z,100.00
2022-10-10T05:43:35.280Z,100.00
2022-10-10T05:46:02.584Z,100.00
2022-10-10T05:48:28.819Z,100.00
2022-10-10T05:50:58.049Z,100.00
2022-10-10T05:53:25.475Z,100.00
2022-10-10T05:55:52.329Z,100.00
2022-10-10T05:58:18.794Z,100.00
2022-10-10T06:00:46.872Z,100.00
2022-10-10T06:03:16.090Z,100.00
2022-10-10T06:05:48.328Z,100.00
2022-10-10T06:08:14.739Z,100.00
2022-10-10T06:10:43.323Z,98.21
2022-10-10T06:13:11.049Z,87.00
2022-10-10T06:15:37.982Z,88.21
2022-10-10T06:18:04.827Z,92.83
2022-10-10T06:20:37.110Z,96.58
2022-10-10T06:23:04.689Z,98.98
2022-10-10T06:25:40.595Z,100.00
2022-10-10T06:28:08.909Z,100.00
2022-10-10T06:30:39.745Z,100.00
2022-10-10T06:33:06.829Z,100.00
2022-10-10T06:35:33.119Z,100.00
2022-10-10T06:37:59.300Z,100.00
2022-10-10T06:40:25.797Z,100.00
2022-10-10T06:42:52.558Z,100.00
2022-10-10T06:45:19.291Z,100.00
2022-10-10T06:47:45.417Z,100.00
2022-10-10T06:50:11.797Z,100.00
2022-10-10T06:52:40.854Z,100.00
2022-10-10T06:55:07.891Z,100.00
2022-10-10T06:57:34.472Z,100.00
2022-10-10T07:00:00.942Z,100.00
2022-10-10T07:02:27.935Z,100.00
2022-10-10T07:04:54.459Z,100.00
2022-10-10T07:07:21.573Z,100.00
2022-10-10T07:09:48.000Z,100.00
2022-10-10T07:12:14.213Z,100.00
2022-10-10T07:14:40.626Z,100.00
2022-10-10T07:17:06.794Z,100.00
2022-10-10T07:19:36.012Z,100.00
2022-10-10T07:22:02.426Z,100.00
2022-10-10T07:24:29.828Z,100.00
2022-10-10T07:27:03.442Z,100.00
2022-10-10T07:29:33.652Z,100.00
2022-10-10T07:31:59.826Z,100.00
2022-10-10T07:34:26.463Z,100.00
2022-10-10T07:36:52.724Z,100.00
2022-10-10T07:39:24.057Z,100.00
2022-10-10T07:41:51.356Z,100.00
2022-10-10T07:44:19.389Z,100.00
2022-10-10T07:46:46.049Z,100.00
2022-10-10T07:49:12.572Z,100.00
2022-10-10T07:51:38.909Z,100.00
2022-10-10T07:54:05.325Z,100.00
2022-10-10T07:56:32.045Z,100.00
2022-10-10T07:58:59.442Z,100.00
2022-10-10T08:01:25.664Z,100.00
2022-10-10T08:03:52.166Z,100.00
2022-10-10T08:06:18.343Z,100.00
2022-10-10T08:08:51.675Z,100.00
2022-10-10T08:11:21.002Z,100.00
2022-10-10T08:13:47.459Z,100.00
2022-10-10T08:16:13.783Z,100.00
2022-10-10T08:18:40.200Z,100.00
2022-10-10T08:21:09.645Z,100.00
2022-10-10T08:23:36.766Z,100.00
2022-10-10T08:26:06.521Z,100.00
2022-10-10T08:28:34.219Z,99.71
2022-10-10T08:31:05.992Z,99.63
2022-10-10T08:33:32.708Z,99.18
2022-10-10T08:36:03.200Z,98.71
2022-10-10T08:38:29.524Z,98.70
2022-10-10T08:40:57.612Z,99.33
2022-10-10T08:43:32.808Z,98.50
2022-10-10T08:46:07.574Z,97.35
2022-10-10T08:48:36.043Z,97.89
2022-10-10T08:51:09.196Z,97.48
2022-10-10T08:53:43.017Z,96.90
2022-10-10T08:56:17.382Z,96.32
2022-10-10T08:58:56.752Z,96.10
2022-10-10T09:01:29.664Z,95.00
2022-10-10T09:04:01.281Z,95.62
2022-10-10T09:06:55.440Z,95.61
2022-10-10T09:09:33.879Z,95.61
2022-10-10T09:12:27.302Z,95.57
2022-10-10T09:15:09.058Z,94.87
2022-10-10T09:18:03.124Z,94.01
2022-10-10T09:20:47.369Z,93.66
2022-10-10T09:23:20.946Z,92.77
2022-10-10T09:26:15.714Z,93.63
2022-10-10T09:28:54.817Z,92.82
2022-10-10T09:31:34.339Z,93.53
2022-10-10T09:34:08.549Z,92.32
2022-10-10T09:36:36.206Z,92.56
2022-10-10T09:39:30.378Z,92.69
2022-10-10T09:42:02.322Z,91.21
2022-10-10T09:44:29.505Z,91.21
2022-10-10T09:46:58.087Z,91.27
2022-10-10T09:49:24.355Z,90.35
2022-10-10T09:51:50.949Z,90.78
2022-10-10T09:54:19.450Z,90.70
2022-10-10T09:56:53.246Z,90.17
2022-10-10T09:59:44.532Z,89.95
2022-10-10T10:02:22.936Z,90.10
2022-10-10T10:04:50.496Z,89.49
2022-10-10T10:07:24.693Z,89.57
2022-10-10T10:09:55.643Z,89.44
2022-10-10T10:12:44.119Z,89.62
2022-10-10T10:15:20.807Z,89.49
2022-10-10T10:18:13.027Z,89.29
2022-10-10T10:20:42.301Z,87.66
2022-10-10T10:23:32.052Z,88.50
2022-10-10T10:26:02.930Z,88.40
2022-10-10T10:28:29.688Z,87.92
2022-10-10T10:30:57.895Z,87.12
2022-10-10T10:33:37.036Z,87.32
2022-10-10T10:36:08.329Z,86.83
2022-10-10T10:38:47.023Z,86.12
2022-10-10T10:41:25.953Z,85.63
2022-10-10T10:44:11.530Z,84.75
2022-10-10T10:47:00.688Z,85.56
2022-10-10T10:50:02.763Z,85.11
2022-10-10T10:52:55.879Z,85.48
2022-10-10T10:55:39.109Z,85.45
2022-10-10T10:58:48.418Z,85.39
2022-10-10T11:01:23.961Z,86.10
2022-10-10T11:05:16.593Z,86.26
2022-10-10T11:07:19.158Z,86.68
2022-10-10T11:10:16.564Z,86.48
2022-10-10T11:12:55.501Z,86.64
2022-10-10T11:15:54.086Z,86.74
2022-10-10T11:18:27.377Z,87.27
2022-10-10T11:21:04.281Z,86.69
2022-10-10T11:23:38.627Z,86.61
2022-10-10T11:26:12.301Z,86.73
2022-10-10T11:29:05.185Z,87.54
2022-10-10T11:31:46.766Z,86.88
2022-10-10T11:34:27.149Z,86.11
2022-10-10T11:36:58.864Z,86.99
2022-10-10T11:39:33.877Z,86.74
2022-10-10T11:42:07.211Z,86.61
2022-10-10T11:44:41.714Z,86.73
2022-10-10T11:47:23.331Z,86.29
2022-10-10T11:50:11.156Z,86.11
2022-10-10T11:52:56.622Z,85.95
2022-10-10T11:55:32.363Z,86.72
2022-10-10T11:58:04.650Z,86.51
2022-10-10T12:00:42.552Z,86.59
2022-10-10T12:03:09.586Z,86.24
2022-10-10T12:05:40.804Z,86.73
2022-10-10T12:08:20.707Z,86.66
2022-10-10T12:11:05.343Z,86.80
2022-10-10T12:13:36.840Z,87.59
2022-10-10T12:16:14.191Z,85.91
2022-10-10T12:18:53.117Z,87.35
2022-10-10T12:21:25.512Z,87.42
2022-10-10T12:24:12.108Z,87.65
2022-10-10T12:26:54.375Z,87.30
2022-10-10T12:29:50.911Z,87.06
2022-10-10T12:32:27.131Z,87.04
2022-10-10T12:34:53.338Z,87.41
2022-10-10T12:37:33.112Z,87.64
2022-10-10T12:40:02.064Z,87.76
2022-10-10T12:42:32.696Z,87.60
2022-10-10T12:44:59.127Z,87.30
2022-10-10T12:47:59.950Z,88.14
2022-10-10T12:50:25.376Z,87.98
2022-10-10T12:52:58.468Z,87.14
2022-10-10T12:55:49.300Z,87.17
2022-10-10T12:58:27.058Z,86.62
2022-10-10T13:01:25.706Z,86.53
2022-10-10T13:03:53.973Z,87.33
2022-10-10T13:06:23.484Z,87.22
2022-10-10T13:08:53.083Z,86.81
2022-10-10T13:11:19.722Z,87.33
2022-10-10T13:13:55.003Z,87.23
2022-10-10T13:16:32.598Z,87.75
2022-10-10T13:19:00.425Z,87.15
2022-10-10T13:21:33.476Z,87.51
2022-10-10T13:24:03.909Z,87.21
2022-10-10T13:26:39.439Z,87.99
2022-10-10T13:29:36.022Z,87.84
2022-10-10T13:32:11.168Z,87.94
2022-10-10T13:34:41.976Z,87.76
2022-10-10T13:37:14.410Z,88.14
2022-10-10T13:39:41.267Z,88.17
2022-10-10T13:42:22.185Z,87.77
2022-10-10T13:44:51.859Z,88.19
2022-10-10T13:47:56.907Z,87.68
2022-10-10T13:50:28.256Z,87.75
2022-10-10T13:53:26.745Z,88.53
2022-10-10T13:56:08.436Z,88.58
2022-10-10T13:58:58.722Z,88.72
2022-10-10T14:01:36.524Z,88.17
2022-10-10T14:04:12.595Z,88.86
2022-10-10T14:06:42.348Z,89.18
2022-10-10T14:09:18.198Z,89.04
2022-10-10T14:11:45.575Z,88.16
2022-10-10T14:14:47.100Z,89.22
2022-10-10T14:17:14.634Z,89.43
2022-10-10T14:19:44.357Z,89.58
2022-10-10T14:22:10.972Z,90.00
2022-10-10T14:24:37.291Z,89.77
2022-10-10T14:27:07.798Z,90.04
2022-10-10T14:29:34.717Z,89.95
2022-10-10T14:32:01.569Z,91.29
2022-10-10T14:34:28.082Z,90.76
2022-10-10T14:37:00.445Z,91.18
2022-10-10T14:39:26.823Z,91.22
2022-10-10T14:41:53.621Z,91.02
2022-10-10T14:44:19.994Z,91.68
2022-10-10T14:46:46.474Z,91.85
2022-10-10T14:49:19.600Z,92.03
2022-10-10T14:51:47.062Z,91.91
2022-10-10T14:54:14.341Z,91.97
2022-10-10T14:57:08.408Z,91.64
2022-10-10T14:59:47.300Z,92.36
2022-10-10T15:02:21.043Z,92.21
2022-10-10T15:04:48.338Z,92.87
2022-10-10T15:07:16.047Z,92.64
2022-10-10T15:12:36.193Z,92.12
2022-10-10T15:15:03.322Z,92.75
2022-10-10T15:17:33.019Z,92.44
2022-10-10T15:20:00.553Z,92.66
2022-10-10T15:22:28.650Z,92.75
2022-10-10T15:24:54.995Z,92.59
2022-10-10T15:27:21.630Z,93.10
2022-10-10T15:29:47.826Z,93.00
2022-10-10T15:32:14.398Z,93.16
2022-10-10T15:34:40.811Z,93.48
2022-10-10T15:37:10.024Z,93.69
2022-10-10T15:39:36.844Z,94.23
2022-10-10T15:42:12.108Z,94.43
2022-10-10T15:44:44.923Z,94.83
2022-10-10T15:47:12.297Z,94.85
2022-10-10T15:49:39.347Z,95.42
2022-10-10T15:52:06.446Z,95.25
2022-10-10T15:54:33.430Z,96.16
2022-10-10T15:56:59.866Z,95.76
2022-10-10T15:59:26.385Z,96.45
2022-10-10T16:01:54.739Z,96.84
2022-10-10T16:04:21.845Z,97.34
2022-10-10T16:06:54.616Z,97.27
2022-10-10T16:09:33.210Z,97.69
2022-10-10T16:12:00.301Z,97.90
2022-10-10T16:14:27.144Z,97.82
2022-10-10T16:16:53.640Z,98.04
2022-10-10T16:19:19.882Z,98.79
2022-10-10T16:21:46.443Z,98.66
2022-10-10T16:24:12.874Z,98.67
2022-10-10T16:26:39.994Z,99.17
2022-10-10T16:29:08.570Z,99.80
2022-10-10T16:31:35.939Z,99.63
2022-10-10T16:34:02.419Z,99.99
2022-10-10T16:36:32.219Z,100.00
2022-10-10T16:38:59.194Z,100.00
2022-10-10T16:41:47.063Z,100.00
2022-10-10T16:44:15.437Z,100.00
2022-10-10T16:46:42.465Z,100.00
2022-10-10T16:49:09.405Z,100.00
2022-10-10T16:51:36.586Z,100.00
2022-10-10T16:54:05.147Z,100.00
2022-10-10T16:56:32.201Z,100.00
2022-10-10T16:58:59.538Z,100.00
2022-10-10T17:01:27.105Z,100.00
2022-10-10T17:03:54.369Z,100.00
2022-10-10T17:06:22.641Z,100.00
2022-10-10T17:08:51.784Z,100.00
2022-10-10T17:11:20.800Z,100.00
2022-10-10T17:13:48.683Z,100.00
2022-10-10T17:19:04.813Z,100.00
2022-10-10T17:21:31.546Z,100.00
2022-10-10T17:23:58.175Z,100.00
2022-10-10T17:26:25.682Z,100.00
2022-10-10T17:28:55.190Z,100.00
2022-10-10T17:31:22.528Z,100.00
2022-10-10T17:33:53.633Z,100.00
2022-10-10T17:36:26.524Z,100.00
2022-10-10T17:38:55.516Z,100.00
2022-10-10T17:41:22.638Z,100.00
2022-10-10T17:43:49.112Z,100.00
2022-10-10T17:46:39.775Z,100.00
2022-10-10T17:49:09.141Z,100.00
2022-10-10T17:51:37.273Z,100.00
2022-10-10T17:54:05.744Z,100.00
2022-10-10T17:56:33.525Z,100.00
2022-10-10T17:59:00.946Z,100.00
2022-10-10T18:01:29.815Z,100.00
2022-10-10T18:03:56.480Z,100.00
2022-10-10T18:06:23.192Z,100.00
2022-10-10T18:08:51.365Z,100.00
2022-10-10T18:11:21.622Z,100.00
2022-10-10T18:13:48.890Z,100.00
2022-10-10T18:16:17.988Z,100.00
2022-10-10T18:18:50.715Z,100.00
2022-10-10T18:21:22.644Z,100.00
2022-10-10T18:23:50.484Z,100.00
2022-10-10T18:26:22.850Z,100.00
2022-10-10T18:28:51.918Z,100.00
2022-10-10T18:31:20.899Z,100.00
2022-10-10T18:33:48.267Z,100.00
2022-10-10T18:36:17.989Z,100.00
2022-10-10T18:38:45.088Z,100.00
2022-10-10T18:41:12.940Z,100.00
2022-10-10T18:43:41.206Z,100.00
2022-10-10T18:46:10.126Z,100.00
2022-10-10T18:48:38.069Z,100.00
2022-10-10T18:51:18.107Z,100.00
2022-10-10T18:53:46.972Z,100.00
2022-10-10T18:56:20.634Z,100.00
2022-10-10T18:58:47.672Z,100.00
2022-10-10T19:01:15.039Z,100.00
2022-10-10T19:03:45.521Z,100.00
2022-10-10T19:06:13.316Z,100.00
2022-10-10T19:08:40.243Z,100.00
2022-10-10T19:11:07.801Z,100.00
2022-10-10T19:13:34.708Z,100.00
2022-10-10T19:16:06.503Z,100.00
2022-10-10T19:18:34.533Z,100.00
2022-10-10T19:21:03.556Z,100.00
2022-10-10T19:23:31.757Z,100.00
2022-10-10T19:26:08.995Z,100.00
2022-10-10T19:28:36.553Z,100.00
2022-10-10T19:31:06.163Z,100.00
2022-10-10T19:33:34.761Z,100.00
2022-10-10T19:36:04.630Z,100.00
2022-10-10T19:38:35.639Z,100.00
2022-10-10T19:41:05.816Z,100.00
2022-10-10T19:43:32.920Z,100.00
2022-10-10T19:46:07.654Z,100.00
2022-10-10T19:48:36.322Z,100.00
2022-10-10T19:51:05.308Z,100.00
2022-10-10T19:53:32.839Z,100.00
2022-10-10T19:56:01.623Z,100.00
2022-10-10T19:58:29.111Z,100.00
2022-10-10T20:00:55.951Z,100.00
2022-10-10T20:03:23.028Z,100.00
2022-10-10T20:05:49.440Z,100.00
2022-10-10T20:08:15.912Z,100.00
2022-10-10T20:10:43.778Z,100.00
2022-10-10T20:13:14.301Z,100.00
2022-10-10T20:15:41.989Z,100.00
2022-10-10T20:18:09.271Z,100.00
2022-10-10T20:20:40.602Z,100.00
2022-10-10T20:23:07.295Z,100.00
2022-10-10T20:25:38.458Z,100.00
2022-10-10T20:28:05.103Z,100.00
2022-10-10T20:30:32.449Z,100.00
2022-10-10T20:32:59.681Z,100.00
2022-10-10T20:35:25.992Z,100.00
2022-10-10T20:37:53.061Z,100.00
2022-10-10T20:40:19.506Z,100.00
2022-10-10T20:42:46.075Z,100.00
2022-10-10T20:45:12.564Z,100.00
2022-10-10T20:47:39.420Z,100.00
2022-10-10T20:50:06.723Z,100.00
2022-10-10T20:52:33.095Z,100.00
2022-10-10T20:54:59.712Z,100.00
2022-10-10T20:57:26.088Z,100.00
2022-10-10T20:59:52.498Z,100.00
2022-10-10T21:02:19.617Z,100.00
2022-10-10T21:04:45.959Z,100.00
2022-10-10T21:07:12.975Z,100.00
2022-10-10T21:09:39.635Z,100.00
2022-10-10T21:12:05.883Z,100.00
2022-10-10T21:14:32.266Z,100.00
2022-10-10T21:16:58.644Z,100.00
2022-10-10T21:19:25.149Z,100.00
2022-10-10T21:21:51.793Z,100.00
2022-10-10T21:24:20.206Z,100.00
2022-10-10T21:26:48.422Z,100.00
2022-10-10T21:29:14.587Z,100.00
2022-10-10T21:31:42.453Z,100.00
2022-10-10T21:34:18.028Z,100.00
2022-10-10T21:36:45.469Z,100.00
2022-10-10T21:39:13.270Z,100.00
2022-10-10T21:41:39.782Z,100.00
2022-10-10T21:44:05.998Z,100.00
2022-10-10T21:46:36.751Z,100.00
2022-10-10T21:49:06.102Z,100.00
2022-10-10T21:51:36.319Z,100.00
2022-10-10T21:54:02.756Z,100.00
2022-10-10T21:56:28.980Z,100.00
2022-10-10T21:58:58.801Z,100.00
2022-10-10T22:01:28.151Z,100.00
2022-10-10T22:03:55.675Z,100.00
2022-10-10T22:06:23.776Z,100.00
2022-10-10T22:08:53.481Z,100.00
2022-10-10T22:11:23.008Z,100.00
2022-10-10T22:13:49.807Z,100.00
2022-10-10T22:16:18.150Z,100.00
2022-10-10T22:18:44.310Z,100.00
2022-10-10T22:21:15.826Z,100.00
2022-10-10T22:23:43.696Z,100.00
2022-10-10T22:26:12.337Z,100.00
2022-10-10T22:28:39.079Z,100.00
2022-10-10T22:31:06.944Z,100.00
2022-10-10T22:33:33.326Z,100.00
2022-10-10T22:36:01.243Z,100.00
2022-10-10T22:38:27.492Z,100.00
2022-10-10T22:40:53.862Z,100.00
2022-10-10T22:43:22.915Z,100.00
2022-10-10T22:45:52.780Z,100.00
2022-10-10T22:48:19.121Z,100.00
2022-10-10T22:50:45.286Z,100.00
2022-10-10T22:53:11.436Z,100.00
2022-10-10T22:55:37.775Z,100.00
2022-10-10T22:58:03.988Z,100.00
2022-10-10T23:00:30.145Z,100.00
2022-10-10T23:02:57.411Z,100.00
2022-10-10T23:05:24.179Z,100.00
2022-10-10T23:07:51.173Z,100.00
2022-10-10T23:10:17.449Z,100.00
2022-10-10T23:12:43.586Z,100.00
2022-10-10T23:15:10.051Z,100.00
2022-10-10T23:17:36.428Z,100.00
2022-10-10T23:20:03.236Z,100.00
2022-10-10T23:22:29.635Z,100.00
2022-10-10T23:24:55.810Z,100.00
2022-10-10T23:27:21.928Z,100.00
2022-10-10T23:29:48.337Z,100.00
2022-10-10T23:32:14.457Z,100.00
2022-10-10T23:34:40.609Z,100.00
2022-10-10T23:37:06.909Z,100.00
2022-10-10T23:39:33.021Z,100.00
2022-10-10T23:41:59.118Z,100.00
2022-10-10T23:44:25.366Z,100.00
2022-10-10T23:46:51.507Z,100.00
2022-10-10T23:49:17.573Z,100.00
2022-10-10T23:51:43.874Z,100.00
2022-10-10T23:54:09.979Z,100.00
2022-10-10T23:56:36.249Z,100.00
2022-10-10T23:59:02.601Z,100.00
